sensor_id;sensor_type;location;lat;lon;timestamp;pressure;altitude;pressure_sealevel;temperature;humidity
4972;BME280;2501;51.214;6.768;2023-02-12T00:01:25;103511.66;;;7.58;99.78
4972;BME280;2501;51.214;6.768;2023-02-12T00:03:56;103508.28;;;7.46;99.48
4972;BME280;2501;51.214;6.768;2023-02-12T00:06:25;103510.13;;;7.62;99.15
4972;BME280;2501;51.214;6.768;2023-02-12T00:08:55;103517.09;;;7.61;99.03
4972;BME280;2501;51.214;6.768;2023-02-12T00:11:25;103509.63;;;7.40;99.46
4972;BME280;2501;51.214;6.768;2023-02-12T00:13:55;103515.44;;;7.36;100.00
4972;BME280;2501;51.214;6.768;2023-02-12T00:16:26;103511.31;;;7.39;100.00
4972;BME280;2501;51.214;6.768;2023-02-12T00:18:57;103509.72;;;7.41;100.00
4972;BME280;2501;51.214;6.768;2023-02-12T00:21:26;103506.41;;;7.30;100.00
4972;BME280;2501;51.214;6.768;2023-02-12T00:23:55;103500.81;;;7.24;100.00
4972;BME280;2501;51.214;6.768;2023-02-12T00:26:23;103506.66;;;7.20;100.00
4972;BME280;2501;51.214;6.768;2023-02-12T00:28:53;103507.25;;;7.16;100.00
4972;BME280;2501;51.214;6.768;2023-02-12T00:31:24;103509.66;;;7.13;100.00
4972;BME280;2501;51.214;6.768;2023-02-12T00:33:53;103505.97;;;7.10;100.00
4972;BME280;2501;51.214;6.768;2023-02-12T00:36:25;103505.06;;;7.09;100.00
4972;BME280;2501;51.214;6.768;2023-02-12T00:38:55;103516.59;;;7.13;100.00
4972;BME280;2501;51.214;6.768;2023-02-12T00:41:25;103506.34;;;7.16;100.00
4972;BME280;2501;51.214;6.768;2023-02-12T00:43:54;103503.94;;;7.19;100.00
4972;BME280;2501;51.214;6.768;2023-02-12T00:46:22;103513.28;;;7.15;100.00
4972;BME280;2501;51.214;6.768;2023-02-12T00:48:50;103514.47;;;7.20;100.00
4972;BME280;2501;51.214;6.768;2023-02-12T00:51:19;103516.78;;;7.16;100.00
4972;BME280;2501;51.214;6.768;2023-02-12T00:53:50;103508.84;;;7.14;100.00
4972;BME280;2501;51.214;6.768;2023-02-12T00:56:18;103510.56;;;7.14;100.00
4972;BME280;2501;51.214;6.768;2023-02-12T00:58:47;103506.44;;;7.17;100.00
4972;BME280;2501;51.214;6.768;2023-02-12T01:01:15;103507.25;;;7.16;100.00
4972;BME280;2501;51.214;6.768;2023-02-12T01:03:44;103501.13;;;7.16;100.00
4972;BME280;2501;51.214;6.768;2023-02-12T01:06:12;103499.63;;;7.19;100.00
4972;BME280;2501;51.214;6.768;2023-02-12T01:08:41;103505.66;;;7.18;100.00
4972;BME280;2501;51.214;6.768;2023-02-12T01:11:12;103504.25;;;7.23;100.00
4972;BME280;2501;51.214;6.768;2023-02-12T01:13:41;103507.22;;;7.29;100.00
4972;BME280;2501;51.214;6.768;2023-02-12T01:16:14;103507.13;;;7.28;100.00
4972;BME280;2501;51.214;6.768;2023-02-12T01:18:43;103497.31;;;7.24;100.00
4972;BME280;2501;51.214;6.768;2023-02-12T01:21:13;103491.09;;;7.22;100.00
4972;BME280;2501;51.214;6.768;2023-02-12T01:23:42;103493.91;;;7.25;100.00
4972;BME280;2501;51.214;6.768;2023-02-12T01:26:15;103497.56;;;7.28;100.00
4972;BME280;2501;51.214;6.768;2023-02-12T01:28:48;103491.44;;;7.28;100.00
4972;BME280;2501;51.214;6.768;2023-02-12T01:31:19;103492.34;;;7.28;100.00
4972;BME280;2501;51.214;6.768;2023-02-12T01:33:51;103495.78;;;7.27;100.00
4972;BME280;2501;51.214;6.768;2023-02-12T01:36:20;103496.59;;;7.26;100.00
4972;BME280;2501;51.214;6.768;2023-02-12T01:38:50;103494.69;;;7.24;100.00
4972;BME280;2501;51.214;6.768;2023-02-12T01:41:24;103491.91;;;7.21;100.00
4972;BME280;2501;51.214;6.768;2023-02-12T01:44:07;103491.00;;;7.20;100.00
4972;BME280;2501;51.214;6.768;2023-02-12T01:46:36;103493.69;;;7.22;100.00
4972;BME280;2501;51.214;6.768;2023-02-12T01:49:09;103488.56;;;7.23;100.00
4972;BME280;2501;51.214;6.768;2023-02-12T01:51:38;103488.28;;;7.19;100.00
4972;BME280;2501;51.214;6.768;2023-02-12T01:54:10;103487.28;;;7.17;100.00
4972;BME280;2501;51.214;6.768;2023-02-12T01:56:43;103489.09;;;7.18;100.00
4972;BME280;2501;51.214;6.768;2023-02-12T01:59:12;103495.59;;;7.24;100.00
4972;BME280;2501;51.214;6.768;2023-02-12T02:01:40;103489.19;;;7.19;100.00
4972;BME280;2501;51.214;6.768;2023-02-12T02:04:11;103480.25;;;7.16;100.00
4972;BME280;2501;51.214;6.768;2023-02-12T02:06:46;103484.25;;;7.11;100.00
4972;BME280;2501;51.214;6.768;2023-02-12T02:09:18;103480.94;;;7.13;100.00
4972;BME280;2501;51.214;6.768;2023-02-12T02:11:49;103485.53;;;7.30;100.00
4972;BME280;2501;51.214;6.768;2023-02-12T02:14:30;103490.69;;;7.72;100.00
4972;BME280;2501;51.214;6.768;2023-02-12T02:17:28;103479.25;;;7.27;100.00
4972;BME280;2501;51.214;6.768;2023-02-12T02:20:20;103486.44;;;7.31;100.00
4972;BME280;2501;51.214;6.768;2023-02-12T02:23:15;103480.28;;;7.03;100.00
4972;BME280;2501;51.214;6.768;2023-02-12T02:26:08;103476.88;;;7.31;100.00
4972;BME280;2501;51.214;6.768;2023-02-12T02:28:58;103488.44;;;7.35;100.00
4972;BME280;2501;51.214;6.768;2023-02-12T02:31:38;103481.78;;;6.99;100.00
4972;BME280;2501;51.214;6.768;2023-02-12T02:34:12;103479.50;;;6.90;100.00
4972;BME280;2501;51.214;6.768;2023-02-12T02:36:49;103476.22;;;7.21;100.00
4972;BME280;2501;51.214;6.768;2023-02-12T02:39:25;103477.03;;;7.76;100.00
4972;BME280;2501;51.214;6.768;2023-02-12T02:42:00;103481.22;;;7.59;99.84
4972;BME280;2501;51.214;6.768;2023-02-12T02:44:34;103476.94;;;7.46;99.53
4972;BME280;2501;51.214;6.768;2023-02-12T02:47:09;103475.53;;;8.09;97.74
4972;BME280;2501;51.214;6.768;2023-02-12T02:49:41;103481.47;;;7.63;97.66
4972;BME280;2501;51.214;6.768;2023-02-12T02:52:17;103481.31;;;7.60;97.67
4972;BME280;2501;51.214;6.768;2023-02-12T02:54:49;103483.47;;;7.67;97.50
4972;BME280;2501;51.214;6.768;2023-02-12T02:57:22;103470.00;;;7.89;96.83
4972;BME280;2501;51.214;6.768;2023-02-12T02:59:55;103476.13;;;7.75;96.87
4972;BME280;2501;51.214;6.768;2023-02-12T03:02:32;103472.19;;;7.96;96.42
4972;BME280;2501;51.214;6.768;2023-02-12T03:05:07;103477.03;;;7.90;96.17
4972;BME280;2501;51.214;6.768;2023-02-12T03:07:40;103474.34;;;8.03;96.79
4972;BME280;2501;51.214;6.768;2023-02-12T03:10:16;103475.63;;;7.25;96.85
4972;BME280;2501;51.214;6.768;2023-02-12T03:12:48;103471.84;;;7.07;98.51
4972;BME280;2501;51.214;6.768;2023-02-12T03:15:21;103476.16;;;6.93;100.00
4972;BME280;2501;51.214;6.768;2023-02-12T03:17:55;103474.91;;;6.86;100.00
4972;BME280;2501;51.214;6.768;2023-02-12T03:20:28;103477.31;;;6.83;100.00
4972;BME280;2501;51.214;6.768;2023-02-12T03:23:02;103471.06;;;6.81;100.00
4972;BME280;2501;51.214;6.768;2023-02-12T03:25:34;103476.34;;;7.22;100.00
4972;BME280;2501;51.214;6.768;2023-02-12T03:28:06;103471.72;;;7.74;100.00
4972;BME280;2501;51.214;6.768;2023-02-12T03:30:44;103470.50;;;7.54;100.00
4972;BME280;2501;51.214;6.768;2023-02-12T03:33:21;103470.84;;;7.05;100.00
4972;BME280;2501;51.214;6.768;2023-02-12T03:36:00;103472.75;;;6.94;100.00
4972;BME280;2501;51.214;6.768;2023-02-12T03:38:36;103468.53;;;6.96;100.00
4972;BME280;2501;51.214;6.768;2023-02-12T03:41:10;103471.84;;;6.93;100.00
4972;BME280;2501;51.214;6.768;2023-02-12T03:43:45;103474.47;;;6.93;100.00
4972;BME280;2501;51.214;6.768;2023-02-12T03:46:19;103471.47;;;6.87;100.00
4972;BME280;2501;51.214;6.768;2023-02-12T03:48:58;103470.59;;;6.87;100.00
4972;BME280;2501;51.214;6.768;2023-02-12T03:51:32;103473.19;;;6.87;100.00
4972;BME280;2501;51.214;6.768;2023-02-12T03:54:03;103468.56;;;6.83;100.00
4972;BME280;2501;51.214;6.768;2023-02-12T03:56:36;103468.16;;;6.77;100.00
4972;BME280;2501;51.214;6.768;2023-02-12T03:59:06;103469.97;;;6.78;100.00
4972;BME280;2501;51.214;6.768;2023-02-12T04:01:35;103470.88;;;6.78;100.00
4972;BME280;2501;51.214;6.768;2023-02-12T04:04:07;103470.59;;;6.74;100.00
4972;BME280;2501;51.214;6.768;2023-02-12T04:06:36;103465.19;;;6.71;100.00
4972;BME280;2501;51.214;6.768;2023-02-12T04:09:08;103465.19;;;6.71;100.00
4972;BME280;2501;51.214;6.768;2023-02-12T04:11:46;103479.22;;;6.73;100.00
4972;BME280;2501;51.214;6.768;2023-02-12T04:14:23;103476.53;;;6.71;100.00
4972;BME280;2501;51.214;6.768;2023-02-12T04:16:59;103479.03;;;6.70;100.00
4972;BME280;2501;51.214;6.768;2023-02-12T04:19:37;103481.44;;;6.67;100.00
4972;BME280;2501;51.214;6.768;2023-02-12T04:22:16;103489.34;;;6.68;100.00
4972;BME280;2501;51.214;6.768;2023-02-12T04:24:51;103495.56;;;6.70;100.00
4972;BME280;2501;51.214;6.768;2023-02-12T04:27:32;103493.88;;;6.71;100.00
4972;BME280;2501;51.214;6.768;2023-02-12T04:30:07;103500.91;;;6.72;100.00
4972;BME280;2501;51.214;6.768;2023-02-12T04:32:41;103496.59;;;6.72;100.00
4972;BME280;2501;51.214;6.768;2023-02-12T04:35:19;103506.91;;;6.71;100.00
4972;BME280;2501;51.214;6.768;2023-02-12T04:37:52;103509.41;;;6.69;100.00
4972;BME280;2501;51.214;6.768;2023-02-12T04:40:22;103504.19;;;6.69;100.00
4972;BME280;2501;51.214;6.768;2023-02-12T04:42:52;103507.81;;;6.58;100.00
4972;BME280;2501;51.214;6.768;2023-02-12T04:45:23;103516.50;;;6.58;100.00
4972;BME280;2501;51.214;6.768;2023-02-12T04:47:52;103512.84;;;6.55;100.00
4972;BME280;2501;51.214;6.768;2023-02-12T04:50:24;103517.63;;;6.49;100.00
4972;BME280;2501;51.214;6.768;2023-02-12T04:52:53;103517.22;;;6.43;100.00
4972;BME280;2501;51.214;6.768;2023-02-12T04:55:21;103522.31;;;6.41;100.00
4972;BME280;2501;51.214;6.768;2023-02-12T04:57:49;103526.03;;;6.45;100.00
4972;BME280;2501;51.214;6.768;2023-02-12T05:00:18;103516.81;;;6.50;100.00
4972;BME280;2501;51.214;6.768;2023-02-12T05:02:47;103521.56;;;6.55;100.00
4972;BME280;2501;51.214;6.768;2023-02-12T05:05:15;103514.31;;;6.51;100.00
4972;BME280;2501;51.214;6.768;2023-02-12T05:07:46;103525.81;;;6.42;100.00
4972;BME280;2501;51.214;6.768;2023-02-12T05:10:15;103521.03;;;6.48;100.00
4972;BME280;2501;51.214;6.768;2023-02-12T05:12:44;103516.94;;;6.51;100.00
4972;BME280;2501;51.214;6.768;2023-02-12T05:15:12;103514.00;;;6.47;100.00
4972;BME280;2501;51.214;6.768;2023-02-12T05:17:41;103517.22;;;6.43;100.00
4972;BME280;2501;51.214;6.768;2023-02-12T05:20:11;103521.03;;;6.48;100.00
4972;BME280;2501;51.214;6.768;2023-02-12T05:22:39;103519.34;;;6.48;100.00
4972;BME280;2501;51.214;6.768;2023-02-12T05:25:11;103523.47;;;6.58;100.00
4972;BME280;2501;51.214;6.768;2023-02-12T05:27:39;103526.56;;;6.52;100.00
4972;BME280;2501;51.214;6.768;2023-02-12T05:30:08;103515.63;;;6.84;100.00
4972;BME280;2501;51.214;6.768;2023-02-12T05:32:37;103525.97;;;6.56;100.00
4972;BME280;2501;51.214;6.768;2023-02-12T05:35:06;103524.16;;;6.69;100.00
4972;BME280;2501;51.214;6.768;2023-02-12T05:37:35;103528.84;;;6.61;100.00
4972;BME280;2501;51.214;6.768;2023-02-12T05:40:04;103533.69;;;6.55;100.00
4972;BME280;2501;51.214;6.768;2023-02-12T05:42:35;103529.06;;;6.64;100.00
4972;BME280;2501;51.214;6.768;2023-02-12T05:45:05;103526.16;;;6.99;100.00
4972;BME280;2501;51.214;6.768;2023-02-12T05:47:33;103533.69;;;6.81;100.00
4972;BME280;2501;51.214;6.768;2023-02-12T05:50:02;103542.91;;;6.63;100.00
4972;BME280;2501;51.214;6.768;2023-02-12T05:52:31;103547.91;;;6.60;100.00
4972;BME280;2501;51.214;6.768;2023-02-12T05:54:59;103539.38;;;6.49;100.00
4972;BME280;2501;51.214;6.768;2023-02-12T05:57:27;103540.19;;;6.61;100.00
4972;BME280;2501;51.214;6.768;2023-02-12T05:59:58;103539.72;;;6.54;100.00
4972;BME280;2501;51.214;6.768;2023-02-12T06:02:27;103538.38;;;6.47;100.00
4972;BME280;2501;51.214;6.768;2023-02-12T06:04:55;103537.69;;;6.50;100.00
4972;BME280;2501;51.214;6.768;2023-02-12T06:07:24;103546.53;;;6.52;100.00
4972;BME280;2501;51.214;6.768;2023-02-12T06:09:52;103538.38;;;6.60;100.00
4972;BME280;2501;51.214;6.768;2023-02-12T06:12:21;103535.69;;;6.59;100.00
4972;BME280;2501;51.214;6.768;2023-02-12T06:14:50;103543.22;;;6.68;100.00
4972;BME280;2501;51.214;6.768;2023-02-12T06:17:21;103544.72;;;6.64;100.00
4972;BME280;2501;51.214;6.768;2023-02-12T06:19:49;103546.63;;;6.67;100.00
4972;BME280;2501;51.214;6.768;2023-02-12T06:22:17;103544.13;;;6.68;100.00
4972;BME280;2501;51.214;6.768;2023-02-12T06:24:46;103543.91;;;6.65;100.00
4972;BME280;2501;51.214;6.768;2023-02-12T06:27:14;103545.72;;;6.66;100.00
4972;BME280;2501;51.214;6.768;2023-02-12T06:29:43;103538.69;;;6.65;100.00
4972;BME280;2501;51.214;6.768;2023-02-12T06:32:11;103540.72;;;6.69;100.00
4972;BME280;2501;51.214;6.768;2023-02-12T06:34:42;103547.63;;;6.69;100.00
4972;BME280;2501;51.214;6.768;2023-02-12T06:37:11;103545.63;;;6.78;100.00
4972;BME280;2501;51.214;6.768;2023-02-12T06:39:40;103544.00;;;6.80;100.00
4972;BME280;2501;51.214;6.768;2023-02-12T06:42:09;103541.72;;;6.71;100.00
4972;BME280;2501;51.214;6.768;2023-02-12T06:44:37;103546.41;;;6.77;100.00
4972;BME280;2501;51.214;6.768;2023-02-12T06:47:06;103549.13;;;6.78;100.00
4972;BME280;2501;51.214;6.768;2023-02-12T06:49:34;103545.81;;;6.68;100.00
4972;BME280;2501;51.214;6.768;2023-02-12T06:52:05;103549.56;;;6.71;100.00
4972;BME280;2501;51.214;6.768;2023-02-12T06:54:33;103558.97;;;6.69;100.00
4972;BME280;2501;51.214;6.768;2023-02-12T06:57:02;103562.59;;;6.71;100.00
4972;BME280;2501;51.214;6.768;2023-02-12T06:59:30;103565.59;;;6.77;100.00
4972;BME280;2501;51.214;6.768;2023-02-12T07:01:59;103561.28;;;6.78;100.00
4972;BME280;2501;51.214;6.768;2023-02-12T07:04:29;103556.84;;;6.77;100.00
4972;BME280;2501;51.214;6.768;2023-02-12T07:06:58;103564.69;;;6.77;100.00
4972;BME280;2501;51.214;6.768;2023-02-12T07:09:29;103568.41;;;6.80;100.00
4972;BME280;2501;51.214;6.768;2023-02-12T07:11:58;103571.81;;;6.79;100.00
4972;BME280;2501;51.214;6.768;2023-02-12T07:14:27;103576.00;;;6.77;100.00
4972;BME280;2501;51.214;6.768;2023-02-12T07:16:56;103574.63;;;6.82;100.00
4972;BME280;2501;51.214;6.768;2023-02-12T07:19:28;103573.81;;;6.83;100.00
4972;BME280;2501;51.214;6.768;2023-02-12T07:21:57;103580.84;;;6.84;100.00
4972;BME280;2501;51.214;6.768;2023-02-12T07:24:25;103579.03;;;6.83;100.00
4972;BME280;2501;51.214;6.768;2023-02-12T07:26:58;103576.75;;;6.75;100.00
4972;BME280;2501;51.214;6.768;2023-02-12T07:29:27;103581.66;;;6.83;100.00
4972;BME280;2501;51.214;6.768;2023-02-12T07:31:55;103577.03;;;6.79;100.00
4972;BME280;2501;51.214;6.768;2023-02-12T07:34:25;103584.56;;;6.75;100.00
4972;BME280;2501;51.214;6.768;2023-02-12T07:36:53;103588.56;;;6.83;100.00
4972;BME280;2501;51.214;6.768;2023-02-12T07:39:22;103588.88;;;6.87;100.00
4972;BME280;2501;51.214;6.768;2023-02-12T07:41:50;103586.88;;;6.83;100.00
4972;BME280;2501;51.214;6.768;2023-02-12T07:44:22;103585.16;;;6.84;100.00
4972;BME280;2501;51.214;6.768;2023-02-12T07:46:51;103585.88;;;7.08;100.00
4972;BME280;2501;51.214;6.768;2023-02-12T07:49:21;103584.19;;;7.49;100.00
4972;BME280;2501;51.214;6.768;2023-02-12T07:51:49;103580.13;;;7.40;100.00
4972;BME280;2501;51.214;6.768;2023-02-12T07:54:19;103590.47;;;7.12;100.00
4972;BME280;2501;51.214;6.768;2023-02-12T07:56:48;103590.31;;;7.09;100.00
4972;BME280;2501;51.214;6.768;2023-02-12T07:59:17;103581.84;;;7.13;100.00
4972;BME280;2501;51.214;6.768;2023-02-12T08:01:50;103586.47;;;7.17;100.00
4972;BME280;2501;51.214;6.768;2023-02-12T08:04:21;103590.97;;;7.74;100.00
4972;BME280;2501;51.214;6.768;2023-02-12T08:06:51;103592.47;;;7.29;100.00
4972;BME280;2501;51.214;6.768;2023-02-12T08:09:22;103590.97;;;7.19;100.00
4972;BME280;2501;51.214;6.768;2023-02-12T08:11:51;103593.00;;;7.23;100.00
4972;BME280;2501;51.214;6.768;2023-02-12T08:14:20;103588.88;;;7.27;100.00
4972;BME280;2501;51.214;6.768;2023-02-12T08:16:52;103596.38;;;7.36;100.00
4972;BME280;2501;51.214;6.768;2023-02-12T08:19:20;103603.09;;;7.32;100.00
4972;BME280;2501;51.214;6.768;2023-02-12T08:21:49;103602.41;;;7.34;100.00
4972;BME280;2501;51.214;6.768;2023-02-12T08:24:21;103597.59;;;7.41;100.00
4972;BME280;2501;51.214;6.768;2023-02-12T08:26:50;103599.88;;;7.49;100.00
4972;BME280;2501;51.214;6.768;2023-02-12T08:29:20;103599.97;;;7.51;100.00
4972;BME280;2501;51.214;6.768;2023-02-12T08:31:53;103600.19;;;7.82;100.00
4972;BME280;2501;51.214;6.768;2023-02-12T08:34:23;103603.53;;;7.66;99.68
4972;BME280;2501;51.214;6.768;2023-02-12T08:36:53;103610.69;;;7.68;99.72
4972;BME280;2501;51.214;6.768;2023-02-12T08:39:23;103611.72;;;7.57;99.69
4972;BME280;2501;51.214;6.768;2023-02-12T08:41:53;103615.59;;;7.64;99.54
4972;BME280;2501;51.214;6.768;2023-02-12T08:44:22;103615.59;;;7.64;98.98
4972;BME280;2501;51.214;6.768;2023-02-12T08:46:53;103614.28;;;7.71;98.81
4972;BME280;2501;51.214;6.768;2023-02-12T08:49:25;103609.88;;;8.25;98.28
4972;BME280;2501;51.214;6.768;2023-02-12T08:51:55;103622.00;;;8.10;95.95
4972;BME280;2501;51.214;6.768;2023-02-12T08:54:28;103620.00;;;8.06;94.72
4972;BME280;2501;51.214;6.768;2023-02-12T08:56:58;103610.63;;;7.82;95.44
4972;BME280;2501;51.214;6.768;2023-02-12T08:59:27;103605.00;;;7.89;95.89
4972;BME280;2501;51.214;6.768;2023-02-12T09:01:59;103609.59;;;7.93;95.31
4972;BME280;2501;51.214;6.768;2023-02-12T09:04:28;103611.06;;;8.02;94.80
4972;BME280;2501;51.214;6.768;2023-02-12T09:06:59;103617.00;;;8.28;93.80
4972;BME280;2501;51.214;6.768;2023-02-12T09:09:27;103610.75;;;8.11;93.59
4972;BME280;2501;51.214;6.768;2023-02-12T09:11:56;103616.00;;;8.26;93.80
4972;BME280;2501;51.214;6.768;2023-02-12T09:14:24;103613.88;;;8.33;93.31
4972;BME280;2501;51.214;6.768;2023-02-12T09:16:53;103616.28;;;8.30;92.79
4972;BME280;2501;51.214;6.768;2023-02-12T09:19:25;103617.97;;;8.87;92.36
4972;BME280;2501;51.214;6.768;2023-02-12T09:21:54;103617.78;;;8.40;91.00
4972;BME280;2501;51.214;6.768;2023-02-12T09:24:23;103618.41;;;9.10;89.70
4972;BME280;2501;51.214;6.768;2023-02-12T09:26:52;103617.25;;;8.46;90.52
4972;BME280;2501;51.214;6.768;2023-02-12T09:29:20;103620.16;;;8.65;91.92
4972;BME280;2501;51.214;6.768;2023-02-12T09:31:49;103627.38;;;8.26;92.74
4972;BME280;2501;51.214;6.768;2023-02-12T09:34:17;103624.75;;;8.26;93.83
4972;BME280;2501;51.214;6.768;2023-02-12T09:36:48;103620.66;;;8.17;94.08
4972;BME280;2501;51.214;6.768;2023-02-12T09:39:17;103628.97;;;8.24;94.56
4972;BME280;2501;51.214;6.768;2023-02-12T09:42:01;103625.56;;;8.25;94.12
4972;BME280;2501;51.214;6.768;2023-02-12T09:44:40;103614.34;;;8.56;93.18
4972;BME280;2501;51.214;6.768;2023-02-12T09:47:14;103616.69;;;8.66;92.75
4972;BME280;2501;51.214;6.768;2023-02-12T09:49:53;103617.06;;;8.72;92.48
4972;BME280;2501;51.214;6.768;2023-02-12T09:52:28;103625.13;;;8.32;93.26
4972;BME280;2501;51.214;6.768;2023-02-12T09:54:57;103625.63;;;9.14;93.49
4972;BME280;2501;51.214;6.768;2023-02-12T09:57:28;103619.84;;;8.90;91.28
4972;BME280;2501;51.214;6.768;2023-02-12T10:00:03;103623.56;;;8.79;92.21
4972;BME280;2501;51.214;6.768;2023-02-12T10:02:34;103629.25;;;8.57;92.16
4972;BME280;2501;51.214;6.768;2023-02-12T10:05:04;103633.66;;;8.87;92.79
4972;BME280;2501;51.214;6.768;2023-02-12T10:07:55;103623.09;;;8.71;92.29
4972;BME280;2501;51.214;6.768;2023-02-12T10:10:38;103629.06;;;8.98;91.58
4972;BME280;2501;51.214;6.768;2023-02-12T10:13:21;103630.41;;;8.91;91.24
4972;BME280;2501;51.214;6.768;2023-02-12T10:15:58;103637.09;;;8.86;90.60
4972;BME280;2501;51.214;6.768;2023-02-12T10:18:42;103631.50;;;9.40;88.56
4972;BME280;2501;51.214;6.768;2023-02-12T10:21:26;103627.84;;;9.84;86.93
4972;BME280;2501;51.214;6.768;2023-02-12T10:24:25;103627.19;;;8.95;87.90
4972;BME280;2501;51.214;6.768;2023-02-12T10:26:58;103627.25;;;8.67;89.56
4972;BME280;2501;51.214;6.768;2023-02-12T10:29:32;103635.66;;;8.62;90.07
4972;BME280;2501;51.214;6.768;2023-02-12T10:32:09;103630.69;;;8.66;90.35
4972;BME280;2501;51.214;6.768;2023-02-12T10:34:40;103630.63;;;8.65;90.10
4972;BME280;2501;51.214;6.768;2023-02-12T10:37:13;103637.00;;;9.14;89.19
4972;BME280;2501;51.214;6.768;2023-02-12T10:39:53;103632.56;;;8.69;87.74
4972;BME280;2501;51.214;6.768;2023-02-12T10:42:33;103635.03;;;8.81;88.28
4972;BME280;2501;51.214;6.768;2023-02-12T10:45:04;103631.84;;;8.71;87.45
4972;BME280;2501;51.214;6.768;2023-02-12T10:47:33;103630.22;;;8.88;87.22
4972;BME280;2501;51.214;6.768;2023-02-12T10:50:15;103628.56;;;9.20;86.26
4972;BME280;2501;51.214;6.768;2023-02-12T10:52:47;103620.97;;;9.55;85.13
4972;BME280;2501;51.214;6.768;2023-02-12T10:55:27;103624.59;;;9.26;84.04
4972;BME280;2501;51.214;6.768;2023-02-12T10:57:57;103630.84;;;9.14;85.17
4972;BME280;2501;51.214;6.768;2023-02-12T11:00:29;103626.59;;;9.01;84.98
4972;BME280;2501;51.214;6.768;2023-02-12T11:03:05;103628.97;;;8.96;85.35
4972;BME280;2501;51.214;6.768;2023-02-12T11:05:44;103619.03;;;9.05;84.96
4972;BME280;2501;51.214;6.768;2023-02-12T11:08:28;103614.88;;;9.09;85.26
4972;BME280;2501;51.214;6.768;2023-02-12T11:11:07;103605.81;;;9.19;84.79
4972;BME280;2501;51.214;6.768;2023-02-12T11:13:36;103607.75;;;8.92;84.99
4972;BME280;2501;51.214;6.768;2023-02-12T11:16:06;103603.31;;;9.05;85.25
4972;BME280;2501;51.214;6.768;2023-02-12T11:18:35;103608.72;;;9.08;85.18
4972;BME280;2501;51.214;6.768;2023-02-12T11:21:05;103611.09;;;8.89;84.60
4972;BME280;2501;51.214;6.768;2023-02-12T11:23:35;103606.28;;;9.12;85.22
4972;BME280;2501;51.214;6.768;2023-02-12T11:26:23;103598.66;;;9.62;83.71
4972;BME280;2501;51.214;6.768;2023-02-12T11:28:54;103604.56;;;9.74;81.80
4972;BME280;2501;51.214;6.768;2023-02-12T11:31:24;103596.91;;;10.60;78.04
4972;BME280;2501;51.214;6.768;2023-02-12T11:34:08;103592.91;;;10.50;76.76
4972;BME280;2501;51.214;6.768;2023-02-12T11:36:39;103586.47;;;10.61;76.13
4972;BME280;2501;51.214;6.768;2023-02-12T11:39:17;103585.88;;;10.49;75.09
4972;BME280;2501;51.214;6.768;2023-02-12T11:41:52;103585.78;;;10.48;75.13
4972;BME280;2501;51.214;6.768;2023-02-12T11:44:24;103583.31;;;10.51;73.33
4972;BME280;2501;51.214;6.768;2023-02-12T11:46:55;103575.84;;;10.94;72.65
4972;BME280;2501;51.214;6.768;2023-02-12T11:49:28;103584.91;;;10.65;72.84
4972;BME280;2501;51.214;6.768;2023-02-12T11:52:00;103582.78;;;10.58;73.61
4972;BME280;2501;51.214;6.768;2023-02-12T11:54:38;103578.78;;;10.30;74.47
4972;BME280;2501;51.214;6.768;2023-02-12T11:57:35;103580.66;;;10.17;75.41
4972;BME280;2501;51.214;6.768;2023-02-12T12:00:11;103572.78;;;10.00;76.12
4972;BME280;2501;51.214;6.768;2023-02-12T12:02:44;103581.66;;;10.19;75.58
4972;BME280;2501;51.214;6.768;2023-02-12T12:05:18;103581.47;;;9.99;76.02
4972;BME280;2501;51.214;6.768;2023-02-12T12:07:51;103569.84;;;9.94;76.61
4972;BME280;2501;51.214;6.768;2023-02-12T12:10:30;103569.34;;;10.18;76.35
4972;BME280;2501;51.214;6.768;2023-02-12T12:13:09;103569.59;;;10.22;75.70
4972;BME280;2501;51.214;6.768;2023-02-12T12:15:42;103562.94;;;10.12;75.56
4972;BME280;2501;51.214;6.768;2023-02-12T12:18:31;103560.16;;;10.60;74.24
4972;BME280;2501;51.214;6.768;2023-02-12T12:21:19;103550.22;;;10.70;73.14
4972;BME280;2501;51.214;6.768;2023-02-12T12:23:55;103550.84;;;9.82;74.97
4972;BME280;2501;51.214;6.768;2023-02-12T12:26:27;103554.00;;;9.60;76.51
4972;BME280;2501;51.214;6.768;2023-02-12T12:29:05;103541.47;;;9.87;77.63
4972;BME280;2501;51.214;6.768;2023-02-12T12:31:40;103539.56;;;10.67;73.83
4972;BME280;2501;51.214;6.768;2023-02-12T12:34:15;103535.06;;;10.65;73.01
4972;BME280;2501;51.214;6.768;2023-02-12T12:37:01;103536.34;;;10.21;74.18
4972;BME280;2501;51.214;6.768;2023-02-12T12:39:35;103532.25;;;10.44;74.40
4972;BME280;2501;51.214;6.768;2023-02-12T12:45:39;103524.16;;;10.07;74.47
4972;BME280;2501;51.214;6.768;2023-02-12T12:48:19;103520.03;;;10.62;74.07
4972;BME280;2501;51.214;6.768;2023-02-12T12:51:05;103525.56;;;10.33;73.96
4972;BME280;2501;51.214;6.768;2023-02-12T12:53:49;103526.72;;;10.22;75.07
4972;BME280;2501;51.214;6.768;2023-02-12T12:56:32;103516.22;;;10.38;73.86
4972;BME280;2501;51.214;6.768;2023-02-12T12:59:36;103507.16;;;10.85;72.34
4972;BME280;2501;51.214;6.768;2023-02-12T13:05:22;103494.44;;;10.94;71.92
4972;BME280;2501;51.214;6.768;2023-02-12T13:08:01;103492.56;;;11.09;70.67
4972;BME280;2501;51.214;6.768;2023-02-12T13:10:34;103498.88;;;10.41;71.79
4972;BME280;2501;51.214;6.768;2023-02-12T13:13:15;103496.03;;;10.37;72.72
4972;BME280;2501;51.214;6.768;2023-02-12T13:15:49;103494.75;;;10.29;73.07
4972;BME280;2501;51.214;6.768;2023-02-12T13:18:35;103491.78;;;10.23;73.11
4972;BME280;2501;51.214;6.768;2023-02-12T13:21:16;103488.84;;;10.17;72.91
4972;BME280;2501;51.214;6.768;2023-02-12T13:23:50;103484.03;;;10.42;73.16
4972;BME280;2501;51.214;6.768;2023-02-12T13:26:24;103490.00;;;10.22;73.04
4972;BME280;2501;51.214;6.768;2023-02-12T13:28:58;103484.69;;;10.20;72.98
4972;BME280;2501;51.214;6.768;2023-02-12T13:31:29;103477.44;;;10.32;73.47
4972;BME280;2501;51.214;6.768;2023-02-12T13:34:02;103476.59;;;9.99;nan
4972;BME280;2501;51.214;6.768;2023-02-12T13:36:35;103482.47;;;10.11;73.25
4972;BME280;2501;51.214;6.768;2023-02-12T13:39:11;103476.88;;;10.05;74.07
4972;BME280;2501;51.214;6.768;2023-02-12T13:41:47;103463.78;;;10.39;73.53
4972;BME280;2501;51.214;6.768;2023-02-12T13:44:23;103478.84;;;9.75;74.76
4972;BME280;2501;51.214;6.768;2023-02-12T13:47:06;103474.94;;;9.67;76.27
4972;BME280;2501;51.214;6.768;2023-02-12T13:49:43;103469.75;;;9.85;75.67
4972;BME280;2501;51.214;6.768;2023-02-12T13:52:21;103468.44;;;9.77;76.15